createdAt,value
2019-02-24T00:01:54.407Z,9.30
2019-02-24T00:04:23.244Z,9.30
2019-02-24T00:06:52.009Z,9.30
2019-02-24T00:09:20.713Z,9.30
2019-02-24T00:11:49.443Z,9.20
2019-02-24T00:14:18.199Z,9.20
2019-02-24T00:16:47.201Z,9.20
2019-02-24T00:19:15.948Z,9.20
2019-02-24T00:21:44.828Z,9.20
2019-02-24T00:24:13.636Z,9.10
2019-02-24T00:26:42.446Z,9.10
2019-02-24T00:29:11.186Z,9.10
2019-02-24T00:31:39.939Z,9.10
2019-02-24T00:34:08.644Z,9.10
2019-02-24T00:36:37.361Z,9.00
2019-02-24T00:39:06.542Z,9.00
2019-02-24T00:41:35.245Z,9.00
2019-02-24T00:44:04.007Z,8.90
2019-02-24T00:46:32.724Z,8.90
2019-02-24T00:49:01.434Z,8.90
2019-02-24T00:51:30.149Z,8.90
2019-02-24T00:53:58.869Z,8.90
2019-02-24T00:56:27.621Z,8.80
2019-02-24T00:58:56.341Z,8.80
2019-02-24T01:01:25.087Z,8.80
2019-02-24T01:03:53.865Z,8.70
2019-02-24T01:06:22.593Z,8.70
2019-02-24T01:08:51.309Z,8.60
2019-02-24T01:11:20.173Z,8.60
2019-02-24T01:13:48.901Z,8.60
2019-02-24T01:16:17.629Z,8.50
2019-02-24T01:18:46.437Z,8.40
2019-02-24T01:21:15.209Z,8.40
2019-02-24T01:23:43.941Z,8.30
2019-02-24T01:26:12.701Z,8.20
2019-02-24T01:28:41.502Z,8.20
2019-02-24T01:31:10.210Z,8.20
2019-02-24T01:33:38.925Z,8.10
2019-02-24T01:36:07.650Z,8.10
2019-02-24T01:38:36.479Z,8.10
2019-02-24T01:41:05.189Z,8.00
2019-02-24T01:43:33.945Z,8.00
2019-02-24T01:46:02.667Z,7.90
2019-02-24T01:48:31.437Z,7.90
2019-02-24T01:51:00.189Z,7.90
2019-02-24T01:53:29.394Z,7.90
2019-02-24T01:55:58.173Z,7.90
2019-02-24T01:58:35.000Z,7.90
2019-02-24T02:00:57.410Z,7.80
2019-02-24T02:03:26.133Z,7.80
2019-02-24T02:05:54.884Z,7.80
2019-02-24T02:08:23.594Z,7.80
2019-02-24T02:10:52.313Z,7.80
2019-02-24T02:13:21.027Z,7.80
2019-02-24T02:15:49.733Z,7.80
2019-02-24T02:18:18.491Z,7.70
2019-02-24T02:20:47.229Z,7.70
2019-02-24T02:23:16.289Z,7.70
2019-02-24T02:25:44.981Z,7.70
2019-02-24T02:28:13.717Z,7.70
2019-02-24T02:30:42.501Z,7.70
2019-02-24T02:33:11.552Z,7.70
2019-02-24T02:35:40.254Z,7.60
2019-02-24T02:38:08.953Z,7.60
2019-02-24T02:40:37.680Z,7.60
2019-02-24T02:43:06.435Z,7.50
2019-02-24T02:45:35.183Z,7.50
2019-02-24T02:48:03.901Z,7.50
2019-02-24T02:50:32.749Z,7.50
2019-02-24T02:53:01.558Z,7.50
2019-02-24T02:55:30.273Z,7.50
2019-02-24T02:57:59.044Z,7.40
2019-02-24T03:00:34.409Z,7.40
2019-02-24T03:03:03.215Z,7.40
2019-02-24T03:05:32.333Z,7.40
2019-02-24T03:08:12.493Z,7.30
2019-02-24T03:10:41.205Z,7.30
2019-02-24T03:13:09.990Z,7.30
2019-02-24T03:15:38.741Z,7.30
2019-02-24T03:18:07.478Z,7.30
2019-02-24T03:20:36.194Z,7.20
2019-02-24T03:23:05.157Z,7.20
2019-02-24T03:25:33.862Z,7.20
2019-02-24T03:28:02.568Z,7.10
2019-02-24T03:30:31.377Z,7.10
2019-02-24T03:33:00.070Z,7.10
2019-02-24T03:35:28.797Z,7.00
2019-02-24T03:37:57.530Z,7.00
2019-02-24T03:40:26.258Z,7.00
2019-02-24T03:42:54.988Z,6.90
2019-02-24T03:45:23.742Z,6.90
2019-02-24T03:47:52.471Z,6.80
2019-02-24T03:50:21.273Z,6.80
2019-02-24T03:52:50.094Z,6.80
2019-02-24T03:55:18.811Z,6.70
2019-02-24T03:57:47.598Z,6.70
2019-02-24T04:00:16.540Z,6.70
2019-02-24T04:02:45.317Z,6.60
2019-02-24T04:05:14.058Z,6.60
2019-02-24T04:07:42.781Z,6.50
2019-02-24T04:10:11.564Z,6.50
2019-02-24T04:12:40.461Z,6.50
2019-02-24T04:15:09.389Z,6.40
2019-02-24T04:17:38.121Z,6.40
2019-02-24T04:20:07.247Z,6.40
2019-02-24T04:22:35.981Z,6.30
2019-02-24T04:25:04.867Z,6.30
2019-02-24T04:27:33.598Z,6.30
2019-02-24T04:30:02.313Z,6.20
2019-02-24T04:32:31.017Z,6.20
2019-02-24T04:34:59.754Z,6.10
2019-02-24T04:37:28.480Z,6.10
2019-02-24T04:39:57.262Z,6.10
2019-02-24T04:42:25.978Z,6.10
2019-02-24T04:44:54.702Z,6.00
2019-02-24T04:47:23.491Z,6.00
2019-02-24T04:49:52.219Z,5.90
2019-02-24T04:52:20.944Z,5.90
2019-02-24T04:54:49.649Z,5.90
2019-02-24T04:57:18.357Z,5.90
2019-02-24T04:59:47.081Z,5.80
2019-02-24T05:02:15.806Z,5.80
2019-02-24T05:04:44.505Z,5.70
2019-02-24T05:07:13.503Z,5.70
2019-02-24T05:09:42.219Z,5.70
2019-02-24T05:12:10.925Z,5.70
2019-02-24T05:14:39.654Z,5.70
2019-02-24T05:17:08.385Z,5.60
2019-02-24T05:19:37.076Z,5.60
2019-02-24T05:22:05.815Z,5.60
2019-02-24T05:24:34.517Z,5.50
2019-02-24T05:27:03.217Z,5.50
2019-02-24T05:29:32.101Z,5.50
2019-02-24T05:32:00.849Z,5.40
2019-02-24T05:34:29.558Z,5.40
2019-02-24T05:36:58.317Z,5.40
2019-02-24T05:39:27.018Z,5.30
2019-02-24T05:41:55.758Z,5.30
2019-02-24T05:44:24.473Z,5.30
2019-02-24T05:46:53.258Z,5.30
2019-02-24T05:49:22.066Z,5.20
2019-02-24T05:51:50.791Z,5.20
2019-02-24T05:54:19.503Z,5.20
2019-02-24T05:56:48.206Z,5.20
2019-02-24T05:59:16.926Z,5.10
2019-02-24T06:01:45.625Z,5.10
2019-02-24T06:04:14.364Z,5.10
2019-02-24T06:06:43.092Z,5.10
2019-02-24T06:09:11.881Z,5.10
2019-02-24T06:11:40.590Z,5.10
2019-02-24T06:14:09.326Z,5.10
2019-02-24T06:16:38.093Z,5.00
2019-02-24T06:19:06.818Z,5.00
2019-02-24T06:21:35.527Z,5.00
2019-02-24T06:24:04.238Z,5.00
2019-02-24T06:26:32.943Z,4.90
2019-02-24T06:29:01.665Z,4.90
2019-02-24T06:31:31.471Z,4.80
2019-02-24T06:34:00.150Z,4.80
2019-02-24T06:36:28.874Z,4.80
2019-02-24T06:38:57.598Z,4.70
2019-02-24T06:41:26.315Z,4.70
2019-02-24T06:43:55.064Z,4.70
2019-02-24T06:46:23.760Z,4.70
2019-02-24T06:48:52.459Z,4.60
2019-02-24T06:51:21.290Z,4.60
2019-02-24T06:53:50.014Z,4.60
2019-02-24T06:56:18.723Z,4.60
2019-02-24T06:58:47.513Z,4.60
2019-02-24T07:01:16.252Z,4.60
2019-02-24T07:03:45.018Z,4.60
2019-02-24T07:06:13.835Z,4.60
2019-02-24T07:08:42.553Z,4.60
2019-02-24T07:11:11.273Z,4.60
2019-02-24T07:13:40.038Z,4.60
2019-02-24T07:16:08.768Z,4.60
2019-02-24T07:18:37.529Z,4.60
2019-02-24T07:21:06.246Z,4.60
2019-02-24T07:23:34.970Z,4.60
2019-02-24T07:26:03.694Z,4.70
2019-02-24T07:28:32.449Z,4.70
2019-02-24T07:31:01.266Z,4.70
2019-02-24T07:33:30.002Z,4.70
2019-02-24T07:35:58.737Z,4.80
2019-02-24T07:38:27.456Z,4.80
2019-02-24T07:40:56.282Z,4.80
2019-02-24T07:43:25.030Z,4.80
2019-02-24T07:45:53.762Z,4.80
2019-02-24T07:48:22.577Z,4.90
2019-02-24T07:50:51.414Z,4.90
2019-02-24T07:53:20.205Z,5.00
2019-02-24T07:55:48.950Z,5.00
2019-02-24T07:58:17.966Z,5.00
2019-02-24T08:00:46.699Z,5.10
2019-02-24T08:03:15.401Z,5.10
2019-02-24T08:05:44.317Z,5.20
2019-02-24T08:08:16.805Z,5.30
2019-02-24T08:10:45.687Z,5.30
2019-02-24T08:13:14.589Z,5.40
2019-02-24T08:15:43.439Z,5.50
2019-02-24T08:18:13.230Z,5.60
2019-02-24T08:20:41.964Z,5.70
2019-02-24T08:23:11.088Z,5.80
2019-02-24T08:25:39.977Z,5.90
2019-02-24T08:28:08.739Z,6.00
2019-02-24T08:30:41.553Z,6.10
2019-02-24T08:33:08.026Z,6.20
2019-02-24T08:35:36.761Z,6.30
2019-02-24T08:38:05.466Z,6.40
2019-02-24T08:40:34.185Z,6.50
2019-02-24T08:43:03.001Z,6.60
2019-02-24T08:45:31.713Z,6.70
2019-02-24T08:48:00.571Z,6.80
2019-02-24T08:50:29.319Z,6.90
2019-02-24T08:52:58.047Z,7.00
2019-02-24T08:55:26.755Z,7.10
2019-02-24T08:57:55.474Z,7.20
2019-02-24T09:00:24.253Z,7.30
2019-02-24T09:02:54.449Z,7.40
2019-02-24T09:05:23.233Z,7.50
2019-02-24T09:07:51.966Z,7.60
2019-02-24T09:10:20.764Z,7.70
2019-02-24T09:12:49.509Z,7.80
2019-02-24T09:15:18.241Z,7.90
2019-02-24T09:17:46.966Z,8.10
2019-02-24T09:20:15.889Z,8.20
2019-02-24T09:22:44.791Z,8.30
2019-02-24T09:25:13.794Z,8.40
2019-02-24T09:27:42.542Z,8.50
2019-02-24T09:30:11.426Z,8.70
2019-02-24T09:32:40.172Z,8.70
2019-02-24T09:35:09.306Z,8.90
2019-02-24T09:37:38.013Z,9.00
2019-02-24T09:40:08.214Z,9.10
2019-02-24T09:42:37.055Z,9.20
2019-02-24T09:45:06.696Z,9.30
2019-02-24T09:47:35.422Z,9.50
2019-02-24T09:50:04.305Z,9.60
2019-02-24T09:52:33.043Z,9.70
2019-02-24T09:55:01.879Z,9.80
2019-02-24T09:57:30.679Z,9.90
2019-02-24T09:59:59.409Z,10.10
2019-02-24T10:02:28.132Z,10.20
2019-02-24T10:04:56.879Z,10.30
2019-02-24T10:07:25.589Z,10.40
2019-02-24T10:09:54.306Z,10.50
2019-02-24T10:12:23.309Z,10.60
2019-02-24T10:14:52.085Z,10.70
2019-02-24T10:17:20.785Z,10.80
2019-02-24T10:19:49.501Z,10.90
2019-02-24T10:22:18.233Z,11.00
2019-02-24T10:24:46.962Z,11.10
2019-02-24T10:27:16.288Z,11.20
2019-02-24T10:29:45.041Z,11.30
2019-02-24T10:32:13.959Z,11.40
2019-02-24T10:34:42.713Z,11.50
2019-02-24T10:37:11.509Z,11.60
2019-02-24T10:39:40.285Z,11.70
2019-02-24T10:42:09.009Z,11.80
2019-02-24T10:44:37.737Z,11.90
2019-02-24T10:47:06.453Z,11.90
2019-02-24T10:49:35.306Z,12.10
2019-02-24T10:52:04.089Z,12.10
2019-02-24T10:54:32.826Z,12.20
2019-02-24T10:57:01.578Z,12.30
2019-02-24T10:59:30.282Z,12.40
2019-02-24T11:01:58.994Z,12.50
2019-02-24T11:04:27.753Z,12.60
2019-02-24T11:06:56.448Z,12.70
2019-02-24T11:09:25.168Z,12.70
2019-02-24T11:11:53.994Z,12.80
2019-02-24T11:14:22.698Z,12.80
2019-02-24T11:16:51.413Z,12.90
2019-02-24T11:19:20.166Z,13.00
2019-02-24T11:21:48.953Z,13.10
2019-02-24T11:24:17.674Z,13.10
2019-02-24T11:26:46.507Z,13.20
2019-02-24T11:29:15.305Z,13.30
2019-02-24T11:31:44.103Z,13.30
2019-02-24T11:34:12.959Z,13.40
2019-02-24T11:36:41.873Z,13.50
2019-02-24T11:39:10.674Z,13.60
2019-02-24T11:41:39.499Z,13.60
2019-02-24T11:44:08.346Z,13.60
2019-02-24T11:46:37.126Z,13.70
2019-02-24T11:49:05.865Z,13.80
2019-02-24T11:51:34.616Z,13.80
2019-02-24T11:54:03.396Z,13.90
2019-02-24T11:56:32.232Z,14.00
2019-02-24T11:59:01.073Z,14.00
2019-02-24T12:01:29.825Z,14.10
2019-02-24T12:03:58.666Z,14.20
2019-02-24T12:06:27.453Z,14.30
2019-02-24T12:09:04.877Z,14.40
2019-02-24T12:11:26.689Z,14.50
2019-02-24T12:13:55.409Z,14.50
2019-02-24T12:16:24.133Z,14.60
2019-02-24T12:18:52.979Z,14.70
2019-02-24T12:21:21.838Z,14.80
2019-02-24T12:23:50.790Z,14.90
2019-02-24T12:26:19.713Z,14.90
2019-02-24T12:28:51.585Z,15.00
2019-02-24T12:31:20.402Z,15.10
2019-02-24T12:33:49.133Z,15.10
2019-02-24T12:36:18.131Z,15.20
2019-02-24T12:38:46.905Z,15.30
2019-02-24T12:41:15.782Z,15.40
2019-02-24T12:43:44.501Z,15.40
2019-02-24T12:46:15.060Z,15.50
2019-02-24T12:48:43.844Z,15.50
2019-02-24T12:51:12.692Z,15.60
2019-02-24T12:53:41.658Z,15.70
2019-02-24T12:56:10.406Z,15.70
2019-02-24T12:58:39.228Z,15.80
2019-02-24T13:01:08.077Z,15.90
2019-02-24T13:03:39.068Z,15.90
2019-02-24T13:06:11.113Z,16.00
2019-02-24T13:08:40.135Z,16.10
2019-02-24T13:11:09.219Z,16.20
2019-02-24T13:13:38.161Z,16.30
2019-02-24T13:16:06.949Z,16.40
2019-02-24T13:18:36.899Z,16.50
2019-02-24T13:21:05.947Z,16.50
2019-02-24T13:23:35.324Z,16.60
2019-02-24T13:26:04.160Z,16.60
2019-02-24T13:28:37.341Z,16.70
2019-02-24T13:31:06.195Z,16.70
2019-02-24T13:33:34.949Z,16.70
2019-02-24T13:36:03.823Z,16.80
2019-02-24T13:38:32.651Z,16.80
2019-02-24T13:41:01.413Z,16.90
2019-02-24T13:43:30.170Z,16.90
2019-02-24T13:45:58.922Z,17.00
2019-02-24T13:48:27.698Z,17.10
2019-02-24T13:50:56.437Z,17.10
2019-02-24T13:53:25.149Z,17.20
2019-02-24T13:55:53.988Z,17.20
2019-02-24T13:58:22.690Z,17.30
2019-02-24T14:00:51.489Z,17.40
2019-02-24T14:03:20.229Z,17.50
2019-02-24T14:05:48.989Z,17.60
2019-02-24T14:08:17.735Z,17.60
2019-02-24T14:10:46.473Z,17.70
2019-02-24T14:13:15.346Z,17.80
2019-02-24T14:15:44.208Z,17.90
2019-02-24T14:18:13.026Z,17.90
2019-02-24T14:20:41.756Z,18.10
2019-02-24T14:23:10.489Z,18.20
2019-02-24T14:25:39.217Z,18.30
2019-02-24T14:28:07.945Z,18.50
2019-02-24T14:30:36.722Z,18.60
2019-02-24T14:33:05.457Z,18.80
2019-02-24T14:35:34.461Z,18.90
2019-02-24T14:38:03.297Z,19.00
2019-02-24T14:40:32.034Z,19.10
2019-02-24T14:43:00.852Z,19.20
2019-02-24T14:45:29.557Z,19.30
2019-02-24T14:47:58.652Z,19.30
2019-02-24T14:50:27.363Z,19.40
2019-02-24T14:52:56.129Z,19.50
2019-02-24T14:55:25.770Z,19.50
2019-02-24T14:57:54.522Z,19.50
2019-02-24T15:00:23.340Z,19.60
2019-02-24T15:02:52.146Z,19.60
2019-02-24T15:05:20.865Z,19.60
2019-02-24T15:07:49.601Z,19.70
2019-02-24T15:10:18.454Z,19.70
2019-02-24T15:12:47.169Z,19.70
2019-02-24T15:15:17.364Z,19.70
2019-02-24T15:17:46.094Z,19.70
2019-02-24T15:20:16.851Z,19.60
2019-02-24T15:22:45.590Z,19.70
2019-02-24T15:25:15.101Z,19.70
2019-02-24T15:27:43.897Z,19.80
2019-02-24T15:30:16.611Z,19.90
2019-02-24T15:32:51.434Z,19.90
2019-02-24T15:35:15.898Z,20.00
2019-02-24T15:37:44.635Z,20.10
2019-02-24T15:40:13.569Z,20.20
2019-02-24T15:42:42.391Z,20.40
2019-02-24T15:45:11.482Z,20.60
2019-02-24T15:47:40.273Z,20.70
2019-02-24T15:50:09.282Z,20.90
2019-02-24T15:52:38.110Z,21.00
2019-02-24T15:55:07.446Z,21.10
2019-02-24T15:57:36.201Z,21.20
2019-02-24T16:00:07.519Z,21.20
2019-02-24T16:02:36.256Z,21.20
2019-02-24T16:05:05.433Z,21.10
2019-02-24T16:07:34.167Z,21.00
2019-02-24T16:10:02.942Z,20.90
2019-02-24T16:12:31.666Z,20.70
2019-02-24T16:15:00.629Z,20.60
2019-02-24T16:17:29.362Z,20.40
2019-02-24T16:19:58.093Z,20.30
2019-02-24T16:22:26.836Z,20.10
2019-02-24T16:24:55.581Z,20.00
2019-02-24T16:27:24.489Z,19.90
2019-02-24T16:29:55.552Z,19.80
2019-02-24T16:32:24.354Z,19.70
2019-02-24T16:34:53.087Z,19.50
2019-02-24T16:37:24.968Z,19.40
2019-02-24T16:39:54.025Z,19.30
2019-02-24T16:42:22.949Z,19.20
2019-02-24T16:44:51.999Z,19.10
2019-02-24T16:47:20.997Z,19.00
2019-02-24T16:49:49.806Z,18.90
2019-02-24T16:52:18.525Z,18.80
2019-02-24T16:54:52.687Z,18.70
2019-02-24T16:57:17.955Z,18.60
2019-02-24T16:59:46.837Z,18.50
2019-02-24T17:02:22.605Z,18.40
2019-02-24T17:04:46.190Z,18.30
2019-02-24T17:07:17.240Z,18.30
2019-02-24T17:09:45.998Z,18.20
2019-02-24T17:12:14.731Z,18.10
2019-02-24T17:14:43.459Z,18.00
2019-02-24T17:17:12.219Z,17.90
2019-02-24T17:19:41.066Z,17.80
2019-02-24T17:22:09.849Z,17.80
2019-02-24T17:24:38.605Z,17.70
2019-02-24T17:27:07.328Z,17.60
2019-02-24T17:29:36.098Z,17.50
2019-02-24T17:32:05.022Z,17.50
2019-02-24T17:34:33.838Z,17.40
2019-02-24T17:37:02.788Z,17.30
2019-02-24T17:39:31.571Z,17.20
2019-02-24T17:42:00.346Z,17.20
2019-02-24T17:44:29.058Z,17.10
2019-02-24T17:46:57.990Z,17.00
2019-02-24T17:49:26.714Z,17.00
2019-02-24T17:51:56.690Z,16.90
2019-02-24T17:54:25.389Z,16.80
2019-02-24T17:56:54.169Z,16.80
2019-02-24T17:59:22.869Z,16.70
2019-02-24T18:01:51.610Z,16.60
2019-02-24T18:04:20.318Z,16.50
2019-02-24T18:06:49.041Z,16.50
2019-02-24T18:09:17.786Z,16.40
2019-02-24T18:11:46.508Z,16.40
2019-02-24T18:14:15.235Z,16.40
2019-02-24T18:16:43.990Z,16.30
2019-02-24T18:19:12.830Z,16.20
2019-02-24T18:21:41.549Z,16.20
2019-02-24T18:24:10.512Z,16.10
2019-02-24T18:26:39.306Z,16.00
2019-02-24T18:29:08.138Z,16.00
2019-02-24T18:31:36.909Z,15.90
2019-02-24T18:34:05.631Z,15.80
2019-02-24T18:36:34.364Z,15.70
2019-02-24T18:39:03.985Z,15.70
2019-02-24T18:41:32.812Z,15.60
2019-02-24T18:44:01.566Z,15.50
2019-02-24T18:46:30.321Z,15.40
2019-02-24T18:48:59.038Z,15.40
2019-02-24T18:51:27.757Z,15.30
2019-02-24T18:53:56.595Z,15.20
2019-02-24T18:56:25.398Z,15.20
2019-02-24T18:58:54.113Z,15.10
2019-02-24T19:01:22.869Z,16.90
2019-02-24T19:03:57.582Z,15.00
2019-02-24T19:06:22.004Z,14.90
2019-02-24T19:08:50.737Z,14.80
2019-02-24T19:11:19.469Z,14.80
2019-02-24T19:13:48.182Z,14.70
2019-02-24T19:16:16.938Z,14.70
2019-02-24T19:18:45.749Z,14.60
2019-02-24T19:21:14.527Z,14.60
2019-02-24T19:23:43.299Z,14.50
2019-02-24T19:26:14.842Z,14.40
2019-02-24T19:28:43.569Z,15.40
2019-02-24T19:31:12.287Z,14.30
2019-02-24T19:33:41.097Z,14.30
2019-02-24T19:36:09.880Z,14.30
2019-02-24T19:38:38.609Z,14.20
2019-02-24T19:41:07.705Z,14.20
2019-02-24T19:43:36.480Z,14.10
2019-02-24T19:46:05.214Z,14.10
2019-02-24T19:48:41.762Z,14.10
2019-02-24T19:51:04.428Z,14.00
2019-02-24T19:53:33.165Z,14.00
2019-02-24T19:56:01.877Z,14.00
2019-02-24T19:58:30.641Z,13.90
2019-02-24T20:00:59.437Z,13.90
2019-02-24T20:03:28.169Z,13.90
2019-02-24T20:05:57.005Z,13.80
2019-02-24T20:08:25.752Z,13.80
2019-02-24T20:10:54.531Z,13.80
2019-02-24T20:13:23.285Z,13.70
2019-02-24T20:15:52.010Z,13.60
2019-02-24T20:18:20.737Z,13.70
2019-02-24T20:20:49.454Z,13.60
2019-02-24T20:23:18.174Z,13.50
2019-02-24T20:25:46.956Z,13.50
2019-02-24T20:28:15.757Z,13.50
2019-02-24T20:30:44.606Z,13.40
2019-02-24T20:33:13.417Z,13.40
2019-02-24T20:35:42.191Z,13.30
2019-02-24T20:38:11.025Z,13.30
2019-02-24T20:40:39.725Z,13.30
2019-02-24T20:43:08.435Z,13.20
2019-02-24T20:45:37.253Z,13.20
2019-02-24T20:48:06.041Z,13.10
2019-02-24T20:50:34.881Z,13.10
2019-02-24T20:53:03.672Z,13.00
2019-02-24T20:55:32.443Z,13.00
2019-02-24T20:58:01.237Z,12.90
2019-02-24T21:00:32.590Z,12.90
2019-02-24T21:03:01.585Z,12.80
2019-02-24T21:05:30.818Z,12.80
2019-02-24T21:07:59.661Z,12.70
2019-02-24T21:10:28.517Z,12.70
2019-02-24T21:12:57.300Z,12.60
2019-02-24T21:15:26.123Z,12.60
2019-02-24T21:17:54.977Z,12.50
2019-02-24T21:20:25.436Z,12.50
2019-02-24T21:22:54.193Z,12.40
2019-02-24T21:25:22.977Z,12.40
2019-02-24T21:27:51.765Z,12.30
2019-02-24T21:30:21.037Z,12.30
2019-02-24T21:32:49.850Z,12.20
2019-02-24T21:35:18.641Z,12.20
2019-02-24T21:37:49.842Z,12.10
2019-02-24T21:40:18.637Z,12.10
2019-02-24T21:42:47.391Z,12.00
2019-02-24T21:45:17.621Z,11.90
2019-02-24T21:47:46.405Z,11.90
2019-02-24T21:50:15.630Z,11.80
2019-02-24T21:52:44.681Z,11.80
2019-02-24T21:55:15.974Z,11.70
2019-02-24T21:57:44.865Z,11.60
2019-02-24T22:00:16.382Z,11.60
2019-02-24T22:02:45.191Z,11.50
2019-02-24T22:05:14.045Z,11.50
2019-02-24T22:07:42.962Z,11.40
2019-02-24T22:10:12.403Z,11.40
2019-02-24T22:12:42.018Z,11.30
2019-02-24T22:15:13.966Z,11.20
2019-02-24T22:17:42.749Z,11.20
2019-02-24T22:20:11.638Z,11.10
2019-02-24T22:22:40.415Z,11.10
2019-02-24T22:25:10.070Z,11.00
2019-02-24T22:27:38.765Z,11.00
2019-02-24T22:30:09.633Z,10.90
2019-02-24T22:32:38.393Z,10.90
2019-02-24T22:35:07.542Z,10.80
2019-02-24T22:37:36.746Z,10.80
2019-02-24T22:40:07.654Z,10.70
2019-02-24T22:42:36.442Z,10.70
2019-02-24T22:45:08.423Z,10.60
2019-02-24T22:47:36.797Z,10.60
2019-02-24T22:50:06.398Z,10.50
2019-02-24T22:52:42.451Z,10.50
2019-02-24T22:55:13.892Z,10.40
2019-02-24T22:57:43.030Z,10.40
2019-02-24T23:00:23.037Z,10.30
2019-02-24T23:02:52.231Z,10.30
2019-02-24T23:05:21.061Z,10.20
2019-02-24T23:07:49.981Z,10.10
2019-02-24T23:10:18.890Z,10.10
2019-02-24T23:12:47.671Z,10.10
2019-02-24T23:15:16.401Z,10.00
2019-02-24T23:17:45.133Z,10.00
2019-02-24T23:20:14.013Z,9.90
2019-02-24T23:22:42.740Z,9.90
2019-02-24T23:25:11.699Z,9.80
2019-02-24T23:27:40.389Z,9.80
2019-02-24T23:30:09.473Z,9.70
2019-02-24T23:32:38.213Z,9.70
2019-02-24T23:35:07.210Z,9.60
2019-02-24T23:37:35.955Z,9.60
2019-02-24T23:40:05.432Z,9.50
2019-02-24T23:42:34.142Z,9.50
2019-02-24T23:45:10.008Z,9.40
2019-02-24T23:47:34.756Z,9.40
2019-02-24T23:50:03.725Z,9.30
2019-02-24T23:52:32.645Z,9.30
2019-02-24T23:55:01.384Z,9.20
2019-02-24T23:57:30.116Z,9.20
2019-02-24T23:59:58.858Z,9.10
